sensor_id;sensor_type;location;lat;lon;timestamp;temperature;humidity
31837;DHT22;18401;49.344;6.240;2023-02-04T03:17:08;8.60;99.90
31837;DHT22;18401;49.344;6.240;2023-02-04T03:19:34;8.60;99.90
31837;DHT22;18401;49.344;6.240;2023-02-04T03:22:01;8.60;99.90
31837;DHT22;18401;49.344;6.240;2023-02-04T03:24:28;8.60;99.90
31837;DHT22;18401;49.344;6.240;2023-02-04T03:26:54;8.60;99.90
31837;DHT22;18401;49.344;6.240;2023-02-04T03:29:19;8.60;99.90
31837;DHT22;18401;49.344;6.240;2023-02-04T03:31:45;8.60;99.90
31837;DHT22;18401;49.344;6.240;2023-02-04T03:34:11;8.60;99.90
31837;DHT22;18401;49.344;6.240;2023-02-04T03:36:37;8.60;99.90
31837;DHT22;18401;49.344;6.240;2023-02-04T03:39:03;8.60;99.90
31837;DHT22;18401;49.344;6.240;2023-02-04T03:41:28;8.60;99.90
31837;DHT22;18401;49.344;6.240;2023-02-04T03:43:54;8.60;99.90
31837;DHT22;18401;49.344;6.240;2023-02-04T03:46:20;8.70;99.90
31837;DHT22;18401;49.344;6.240;2023-02-04T03:48:48;8.70;99.90
31837;DHT22;18401;49.344;6.240;2023-02-04T03:51:14;8.70;99.90
31837;DHT22;18401;49.344;6.240;2023-02-04T03:53:39;8.80;99.90
31837;DHT22;18401;49.344;6.240;2023-02-04T03:56:05;8.80;99.90
31837;DHT22;18401;49.344;6.240;2023-02-04T03:58:31;8.80;99.90
31837;DHT22;18401;49.344;6.240;2023-02-04T04:00:57;8.70;99.90
31837;DHT22;18401;49.344;6.240;2023-02-04T04:03:23;8.80;99.90
31837;DHT22;18401;49.344;6.240;2023-02-04T04:05:48;8.80;99.90
31837;DHT22;18401;49.344;6.240;2023-02-04T04:08:14;8.80;99.90
31837;DHT22;18401;49.344;6.240;2023-02-04T04:10:40;8.80;99.90
31837;DHT22;18401;49.344;6.240;2023-02-04T04:13:05;8.90;99.90
31837;DHT22;18401;49.344;6.240;2023-02-04T04:15:31;8.90;99.90
31837;DHT22;18401;49.344;6.240;2023-02-04T04:17:57;8.90;99.90
31837;DHT22;18401;49.344;6.240;2023-02-04T04:20:22;8.90;99.90
31837;DHT22;18401;49.344;6.240;2023-02-04T04:22:50;9.00;99.90
31837;DHT22;18401;49.344;6.240;2023-02-04T04:25:16;9.00;99.90
31837;DHT22;18401;49.344;6.240;2023-02-04T04:27:42;9.10;99.90
31837;DHT22;18401;49.344;6.240;2023-02-04T04:30:08;9.10;99.90
31837;DHT22;18401;49.344;6.240;2023-02-04T04:32:34;9.10;99.90
31837;DHT22;18401;49.344;6.240;2023-02-04T04:34:59;9.10;99.90
31837;DHT22;18401;49.344;6.240;2023-02-04T04:37:25;9.10;99.90
31837;DHT22;18401;49.344;6.240;2023-02-04T04:39:51;9.10;99.90
31837;DHT22;18401;49.344;6.240;2023-02-04T04:42:16;9.20;99.90
31837;DHT22;18401;49.344;6.240;2023-02-04T04:44:42;9.10;99.90
31837;DHT22;18401;49.344;6.240;2023-02-04T04:47:08;9.20;99.90
31837;DHT22;18401;49.344;6.240;2023-02-04T04:49:33;9.20;99.90
31837;DHT22;18401;49.344;6.240;2023-02-04T04:51:59;9.20;99.90
31837;DHT22;18401;49.344;6.240;2023-02-04T04:54:25;9.10;99.90
31837;DHT22;18401;49.344;6.240;2023-02-04T04:56:50;9.10;99.90
31837;DHT22;18401;49.344;6.240;2023-02-04T04:59:16;9.10;99.90
31837;DHT22;18401;49.344;6.240;2023-02-04T05:01:41;9.10;99.90
31837;DHT22;18401;49.344;6.240;2023-02-04T05:04:07;9.10;99.90
31837;DHT22;18401;49.344;6.240;2023-02-04T05:06:33;9.10;99.90
31837;DHT22;18401;49.344;6.240;2023-02-04T05:08:58;9.00;99.90
31837;DHT22;18401;49.344;6.240;2023-02-04T05:11:24;9.00;99.90
31837;DHT22;18401;49.344;6.240;2023-02-04T05:13:49;9.10;99.90
31837;DHT22;18401;49.344;6.240;2023-02-04T05:16:15;9.20;99.90
31837;DHT22;18401;49.344;6.240;2023-02-04T05:18:42;9.20;99.90
31837;DHT22;18401;49.344;6.240;2023-02-04T05:21:08;9.30;99.90
31837;DHT22;18401;49.344;6.240;2023-02-04T05:23:34;9.40;99.90
31837;DHT22;18401;49.344;6.240;2023-02-04T05:25:59;9.40;99.90
31837;DHT22;18401;49.344;6.240;2023-02-04T05:28:25;9.30;99.90
31837;DHT22;18401;49.344;6.240;2023-02-04T05:30:51;9.30;99.90
31837;DHT22;18401;49.344;6.240;2023-02-04T05:33:17;9.30;99.90
31837;DHT22;18401;49.344;6.240;2023-02-04T05:35:42;9.30;99.90
31837;DHT22;18401;49.344;6.240;2023-02-04T05:38:08;9.30;99.90
31837;DHT22;18401;49.344;6.240;2023-02-04T05:40:34;9.30;99.90
31837;DHT22;18401;49.344;6.240;2023-02-04T05:42:59;9.30;99.90
31837;DHT22;18401;49.344;6.240;2023-02-04T05:45:25;9.30;99.90
31837;DHT22;18401;49.344;6.240;2023-02-04T05:47:51;9.20;99.90
31837;DHT22;18401;49.344;6.240;2023-02-04T05:50:17;9.10;99.90
31837;DHT22;18401;49.344;6.240;2023-02-04T05:52:43;9.10;99.90
31837;DHT22;18401;49.344;6.240;2023-02-04T05:55:10;8.90;99.90
31837;DHT22;18401;49.344;6.240;2023-02-04T05:57:36;8.90;99.90
31837;DHT22;18401;49.344;6.240;2023-02-04T06:00:02;8.80;99.90
31837;DHT22;18401;49.344;6.240;2023-02-04T06:02:28;8.80;99.90
31837;DHT22;18401;49.344;6.240;2023-02-04T06:04:54;8.80;99.90
31837;DHT22;18401;49.344;6.240;2023-02-04T06:07:20;8.70;99.90
31837;DHT22;18401;49.344;6.240;2023-02-04T06:09:46;8.70;99.90
31837;DHT22;18401;49.344;6.240;2023-02-04T06:12:11;8.60;99.90
31837;DHT22;18401;49.344;6.240;2023-02-04T06:14:37;8.60;99.90
31837;DHT22;18401;49.344;6.240;2023-02-04T06:17:03;8.60;99.90
31837;DHT22;18401;49.344;6.240;2023-02-04T06:19:28;8.60;99.90
31837;DHT22;18401;49.344;6.240;2023-02-04T06:21:54;8.50;99.90
31837;DHT22;18401;49.344;6.240;2023-02-04T06:24:20;8.50;99.90
31837;DHT22;18401;49.344;6.240;2023-02-04T06:26:45;8.50;99.90
31837;DHT22;18401;49.344;6.240;2023-02-04T06:29:11;8.40;99.90
31837;DHT22;18401;49.344;6.240;2023-02-04T06:31:37;8.30;99.90
31837;DHT22;18401;49.344;6.240;2023-02-04T06:34:03;8.30;99.90
31837;DHT22;18401;49.344;6.240;2023-02-04T06:36:29;8.30;99.90
31837;DHT22;18401;49.344;6.240;2023-02-04T06:38:55;8.20;99.90
31837;DHT22;18401;49.344;6.240;2023-02-04T06:41:21;8.10;99.90
31837;DHT22;18401;49.344;6.240;2023-02-04T06:43:47;8.10;99.90
31837;DHT22;18401;49.344;6.240;2023-02-04T06:46:13;8.00;99.90
31837;DHT22;18401;49.344;6.240;2023-02-04T06:48:38;8.00;99.90
31837;DHT22;18401;49.344;6.240;2023-02-04T06:51:04;8.00;99.90
31837;DHT22;18401;49.344;6.240;2023-02-04T06:53:30;7.90;99.90
31837;DHT22;18401;49.344;6.240;2023-02-04T06:55:55;7.90;99.90
31837;DHT22;18401;49.344;6.240;2023-02-04T06:58:21;7.80;99.90
31837;DHT22;18401;49.344;6.240;2023-02-04T07:00:47;7.80;99.90
31837;DHT22;18401;49.344;6.240;2023-02-04T07:03:12;7.80;99.90
31837;DHT22;18401;49.344;6.240;2023-02-04T07:05:38;7.80;99.90
31837;DHT22;18401;49.344;6.240;2023-02-04T07:08:04;7.80;99.90
31837;DHT22;18401;49.344;6.240;2023-02-04T07:10:30;7.80;99.90
31837;DHT22;18401;49.344;6.240;2023-02-04T07:12:56;7.80;99.90
31837;DHT22;18401;49.344;6.240;2023-02-04T07:15:22;7.80;99.90
31837;DHT22;18401;49.344;6.240;2023-02-04T07:17:48;7.80;99.90
31837;DHT22;18401;49.344;6.240;2023-02-04T07:20:13;7.80;99.90
31837;DHT22;18401;49.344;6.240;2023-02-04T07:22:39;7.80;99.90
31837;DHT22;18401;49.344;6.240;2023-02-04T07:25:06;7.70;99.90
31837;DHT22;18401;49.344;6.240;2023-02-04T07:27:32;7.80;99.90
31837;DHT22;18401;49.344;6.240;2023-02-04T07:29:58;7.80;99.90
31837;DHT22;18401;49.344;6.240;2023-02-04T07:32:24;7.80;99.90
31837;DHT22;18401;49.344;6.240;2023-02-04T07:34:52;7.80;99.90
31837;DHT22;18401;49.344;6.240;2023-02-04T07:37:17;7.90;99.90
31837;DHT22;18401;49.344;6.240;2023-02-04T07:39:45;7.90;99.90
31837;DHT22;18401;49.344;6.240;2023-02-04T07:42:10;7.90;99.90
31837;DHT22;18401;49.344;6.240;2023-02-04T07:44:36;7.90;99.90
31837;DHT22;18401;49.344;6.240;2023-02-04T07:47:02;7.90;99.90
31837;DHT22;18401;49.344;6.240;2023-02-04T07:49:28;7.90;99.90
31837;DHT22;18401;49.344;6.240;2023-02-04T07:51:53;7.90;99.90
31837;DHT22;18401;49.344;6.240;2023-02-04T07:54:19;8.00;99.90
31837;DHT22;18401;49.344;6.240;2023-02-04T07:56:45;8.00;99.90
31837;DHT22;18401;49.344;6.240;2023-02-04T07:59:10;8.10;99.90
31837;DHT22;18401;49.344;6.240;2023-02-04T08:01:36;8.10;99.90
31837;DHT22;18401;49.344;6.240;2023-02-04T08:04:02;8.10;99.90
31837;DHT22;18401;49.344;6.240;2023-02-04T08:06:27;8.20;99.90
31837;DHT22;18401;49.344;6.240;2023-02-04T08:08:53;8.20;99.90
31837;DHT22;18401;49.344;6.240;2023-02-04T08:11:19;8.20;99.90
31837;DHT22;18401;49.344;6.240;2023-02-04T08:13:45;8.20;99.90
31837;DHT22;18401;49.344;6.240;2023-02-04T08:16:10;8.20;99.90
31837;DHT22;18401;49.344;6.240;2023-02-04T08:18:36;8.20;99.90
31837;DHT22;18401;49.344;6.240;2023-02-04T08:21:01;8.30;99.90
31837;DHT22;18401;49.344;6.240;2023-02-04T08:23:29;8.30;99.90
31837;DHT22;18401;49.344;6.240;2023-02-04T08:25:55;8.30;99.90
31837;DHT22;18401;49.344;6.240;2023-02-04T08:28:20;8.40;99.90
31837;DHT22;18401;49.344;6.240;2023-02-04T08:30:46;8.30;99.90
31837;DHT22;18401;49.344;6.240;2023-02-04T08:33:12;8.30;99.90
31837;DHT22;18401;49.344;6.240;2023-02-04T08:35:37;8.40;99.90
31837;DHT22;18401;49.344;6.240;2023-02-04T08:38:03;8.40;99.90
31837;DHT22;18401;49.344;6.240;2023-02-04T08:40:29;8.40;99.90
31837;DHT22;18401;49.344;6.240;2023-02-04T08:42:54;8.50;99.90
31837;DHT22;18401;49.344;6.240;2023-02-04T08:45:20;8.50;99.90
31837;DHT22;18401;49.344;6.240;2023-02-04T08:47:46;8.60;99.90
31837;DHT22;18401;49.344;6.240;2023-02-04T08:50:11;8.70;99.90
31837;DHT22;18401;49.344;6.240;2023-02-04T08:52:37;8.70;99.90
31837;DHT22;18401;49.344;6.240;2023-02-04T08:55:03;8.70;99.90
31837;DHT22;18401;49.344;6.240;2023-02-04T08:57:29;8.80;99.90
31837;DHT22;18401;49.344;6.240;2023-02-04T08:59:55;8.90;99.90
31837;DHT22;18401;49.344;6.240;2023-02-04T09:02:20;8.90;99.90
31837;DHT22;18401;49.344;6.240;2023-02-04T09:04:46;9.00;99.90
31837;DHT22;18401;49.344;6.240;2023-02-04T09:07:12;9.10;99.90
31837;DHT22;18401;49.344;6.240;2023-02-04T09:09:37;9.10;99.90
31837;DHT22;18401;49.344;6.240;2023-02-04T09:12:03;9.00;99.90
31837;DHT22;18401;49.344;6.240;2023-02-04T09:14:28;9.10;99.90
31837;DHT22;18401;49.344;6.240;2023-02-04T09:16:54;9.20;99.90
31837;DHT22;18401;49.344;6.240;2023-02-04T09:19:20;9.30;99.90
31837;DHT22;18401;49.344;6.240;2023-02-04T09:21:51;9.30;99.90
31837;DHT22;18401;49.344;6.240;2023-02-04T09:24:16;9.20;99.90
31837;DHT22;18401;49.344;6.240;2023-02-04T09:26:42;9.40;99.90
31837;DHT22;18401;49.344;6.240;2023-02-04T09:29:08;9.30;99.90
31837;DHT22;18401;49.344;6.240;2023-02-04T09:31:33;9.40;99.90
31837;DHT22;18401;49.344;6.240;2023-02-04T09:34:00;9.40;99.90
31837;DHT22;18401;49.344;6.240;2023-02-04T09:36:25;9.30;99.90
31837;DHT22;18401;49.344;6.240;2023-02-04T09:38:54;9.30;99.90
31837;DHT22;18401;49.344;6.240;2023-02-04T09:41:19;9.30;99.90
31837;DHT22;18401;49.344;6.240;2023-02-04T09:43:45;9.30;99.90
31837;DHT22;18401;49.344;6.240;2023-02-04T09:46:23;9.40;99.90
31837;DHT22;18401;49.344;6.240;2023-02-04T09:48:50;9.50;99.90
31837;DHT22;18401;49.344;6.240;2023-02-04T09:51:24;9.50;99.90
31837;DHT22;18401;49.344;6.240;2023-02-04T09:53:51;9.70;99.90
31837;DHT22;18401;49.344;6.240;2023-02-04T09:56:18;9.80;99.90
31837;DHT22;18401;49.344;6.240;2023-02-04T09:58:44;9.90;99.90
31837;DHT22;18401;49.344;6.240;2023-02-04T10:01:18;9.90;99.90
31837;DHT22;18401;49.344;6.240;2023-02-04T10:03:46;9.60;99.90
31837;DHT22;18401;49.344;6.240;2023-02-04T10:06:17;9.60;99.90
31837;DHT22;18401;49.344;6.240;2023-02-04T10:08:44;9.60;99.90
31837;DHT22;18401;49.344;6.240;2023-02-04T10:11:10;9.40;99.90
31837;DHT22;18401;49.344;6.240;2023-02-04T10:13:45;9.40;99.90
31837;DHT22;18401;49.344;6.240;2023-02-04T10:16:17;9.70;99.90
31837;DHT22;18401;49.344;6.240;2023-02-04T10:18:44;9.90;99.90
31837;DHT22;18401;49.344;6.240;2023-02-04T10:21:14;9.90;99.90
31837;DHT22;18401;49.344;6.240;2023-02-04T10:23:42;10.20;99.90
31837;DHT22;18401;49.344;6.240;2023-02-04T10:26:11;10.20;99.90
31837;DHT22;18401;49.344;6.240;2023-02-04T10:28:38;10.10;99.90
31837;DHT22;18401;49.344;6.240;2023-02-04T10:31:05;9.90;99.90
31837;DHT22;18401;49.344;6.240;2023-02-04T10:33:34;9.90;99.90
31837;DHT22;18401;49.344;6.240;2023-02-04T10:36:03;9.80;99.90
31837;DHT22;18401;49.344;6.240;2023-02-04T10:38:29;10.00;99.90
31837;DHT22;18401;49.344;6.240;2023-02-04T10:41:03;10.00;99.90
31837;DHT22;18401;49.344;6.240;2023-02-04T10:43:29;9.90;99.90
31837;DHT22;18401;49.344;6.240;2023-02-04T10:45:58;9.90;99.90
31837;DHT22;18401;49.344;6.240;2023-02-04T10:48:24;10.00;99.90
31837;DHT22;18401;49.344;6.240;2023-02-04T10:50:50;10.00;99.90
31837;DHT22;18401;49.344;6.240;2023-02-04T10:53:21;10.30;99.90
31837;DHT22;18401;49.344;6.240;2023-02-04T10:56:15;10.70;99.90
31837;DHT22;18401;49.344;6.240;2023-02-04T10:58:42;11.10;99.90
31837;DHT22;18401;49.344;6.240;2023-02-04T11:01:12;11.40;99.90
31837;DHT22;18401;49.344;6.240;2023-02-04T11:03:39;12.30;99.90
31837;DHT22;18401;49.344;6.240;2023-02-04T11:06:17;12.70;99.90
31837;DHT22;18401;49.344;6.240;2023-02-04T11:08:44;13.00;99.90
31837;DHT22;18401;49.344;6.240;2023-02-04T11:11:17;13.20;99.90
31837;DHT22;18401;49.344;6.240;2023-02-04T11:26:40;12.70;99.90
31837;DHT22;18401;49.344;6.240;2023-02-04T11:29:25;12.60;99.90
31837;DHT22;18401;49.344;6.240;2023-02-04T11:39:21;11.90;99.90
31837;DHT22;18401;49.344;6.240;2023-02-04T11:41:49;11.70;99.90
31837;DHT22;18401;49.344;6.240;2023-02-04T11:44:15;11.70;99.90
31837;DHT22;18401;49.344;6.240;2023-02-04T11:46:42;11.60;99.90
31837;DHT22;18401;49.344;6.240;2023-02-04T11:49:17;11.60;99.90
31837;DHT22;18401;49.344;6.240;2023-02-04T11:51:43;11.70;99.90
31837;DHT22;18401;49.344;6.240;2023-02-04T11:54:16;11.80;99.90
31837;DHT22;18401;49.344;6.240;2023-02-04T11:56:46;11.70;99.90
31837;DHT22;18401;49.344;6.240;2023-02-04T11:59:13;11.50;99.90
31837;DHT22;18401;49.344;6.240;2023-02-04T12:01:39;11.50;99.90
31837;DHT22;18401;49.344;6.240;2023-02-04T12:04:07;11.60;99.90
31837;DHT22;18401;49.344;6.240;2023-02-04T12:06:58;11.60;99.90
31837;DHT22;18401;49.344;6.240;2023-02-04T12:09:26;11.60;99.90
31837;DHT22;18401;49.344;6.240;2023-02-04T12:12:00;11.50;99.90
31837;DHT22;18401;49.344;6.240;2023-02-04T12:14:32;11.50;99.90
31837;DHT22;18401;49.344;6.240;2023-02-04T12:16:58;11.50;99.90
31837;DHT22;18401;49.344;6.240;2023-02-04T12:19:24;11.60;99.90
31837;DHT22;18401;49.344;6.240;2023-02-04T12:21:50;11.40;99.90
31837;DHT22;18401;49.344;6.240;2023-02-04T12:24:15;11.40;99.90
31837;DHT22;18401;49.344;6.240;2023-02-04T12:26:41;11.60;99.90
31837;DHT22;18401;49.344;6.240;2023-02-04T12:29:07;11.50;99.90
31837;DHT22;18401;49.344;6.240;2023-02-04T12:31:34;11.40;99.90
31837;DHT22;18401;49.344;6.240;2023-02-04T12:34:00;11.30;99.90
31837;DHT22;18401;49.344;6.240;2023-02-04T12:36:26;11.30;99.90
31837;DHT22;18401;49.344;6.240;2023-02-04T12:38:54;11.40;99.90
31837;DHT22;18401;49.344;6.240;2023-02-04T12:41:20;11.60;99.90
31837;DHT22;18401;49.344;6.240;2023-02-04T12:43:45;11.60;99.90
31837;DHT22;18401;49.344;6.240;2023-02-04T12:46:15;11.50;99.90
31837;DHT22;18401;49.344;6.240;2023-02-04T12:48:40;11.40;99.90
31837;DHT22;18401;49.344;6.240;2023-02-04T12:51:06;11.40;96.70
31837;DHT22;18401;49.344;6.240;2023-02-04T12:53:32;11.20;95.80
31837;DHT22;18401;49.344;6.240;2023-02-04T12:55:58;11.10;92.00
31837;DHT22;18401;49.344;6.240;2023-02-04T12:58:24;11.30;95.30
31837;DHT22;18401;49.344;6.240;2023-02-04T13:00:49;11.30;95.90
31837;DHT22;18401;49.344;6.240;2023-02-04T13:03:15;11.40;97.20
31837;DHT22;18401;49.344;6.240;2023-02-04T13:05:41;11.60;97.20
31837;DHT22;18401;49.344;6.240;2023-02-04T13:08:06;11.60;95.70
31837;DHT22;18401;49.344;6.240;2023-02-04T13:10:32;11.60;94.60
31837;DHT22;18401;49.344;6.240;2023-02-04T13:12:59;11.60;94.70
31837;DHT22;18401;49.344;6.240;2023-02-04T13:15:25;11.90;99.90
31837;DHT22;18401;49.344;6.240;2023-02-04T13:17:51;12.10;85.10
31837;DHT22;18401;49.344;6.240;2023-02-04T13:20:17;12.30;82.20
31837;DHT22;18401;49.344;6.240;2023-02-04T13:22:43;12.60;67.30
31837;DHT22;18401;49.344;6.240;2023-02-04T13:25:09;12.80;51.30
31837;DHT22;18401;49.344;6.240;2023-02-04T13:27:36;13.00;41.70
31837;DHT22;18401;49.344;6.240;2023-02-04T13:30:04;12.90;31.60
31837;DHT22;18401;49.344;6.240;2023-02-04T13:32:29;13.90;28.50
31837;DHT22;18401;49.344;6.240;2023-02-04T13:34:55;15.00;1.00
31837;DHT22;18401;49.344;6.240;2023-02-04T13:37:21;16.20;1.00
31837;DHT22;18401;49.344;6.240;2023-02-04T13:39:46;16.70;1.00
31837;DHT22;18401;49.344;6.240;2023-02-04T13:42:12;16.10;99.90
31837;DHT22;18401;49.344;6.240;2023-02-04T13:44:38;15.10;1.00
31837;DHT22;18401;49.344;6.240;2023-02-04T13:47:03;14.60;1.00
31837;DHT22;18401;49.344;6.240;2023-02-04T13:49:29;14.30;1.00
31837;DHT22;18401;49.344;6.240;2023-02-04T13:51:55;14.20;1.00
31837;DHT22;18401;49.344;6.240;2023-02-04T13:54:20;15.10;1.00
31837;DHT22;18401;49.344;6.240;2023-02-04T13:56:46;15.50;1.00
31837;DHT22;18401;49.344;6.240;2023-02-04T13:59:12;15.50;1.00
31837;DHT22;18401;49.344;6.240;2023-02-04T14:01:38;15.30;1.00
31837;DHT22;18401;49.344;6.240;2023-02-04T14:04:03;14.60;1.00
31837;DHT22;18401;49.344;6.240;2023-02-04T14:06:29;13.80;1.00
31837;DHT22;18401;49.344;6.240;2023-02-04T14:09:02;13.10;1.00
31837;DHT22;18401;49.344;6.240;2023-02-04T14:11:28;12.60;1.00
31837;DHT22;18401;49.344;6.240;2023-02-04T14:13:53;13.00;3.00
31837;DHT22;18401;49.344;6.240;2023-02-04T14:16:19;13.40;1.00
31837;DHT22;18401;49.344;6.240;2023-02-04T14:18:45;13.50;1.00
31837;DHT22;18401;49.344;6.240;2023-02-04T14:21:10;13.30;1.00
31837;DHT22;18401;49.344;6.240;2023-02-04T14:23:36;12.80;1.00
31837;DHT22;18401;49.344;6.240;2023-02-04T14:26:02;12.40;6.30
31837;DHT22;18401;49.344;6.240;2023-02-04T14:28:27;12.10;17.40
31837;DHT22;18401;49.344;6.240;2023-02-04T14:30:53;11.90;27.60
31837;DHT22;18401;49.344;6.240;2023-02-04T14:33:19;11.70;26.60
31837;DHT22;18401;49.344;6.240;2023-02-04T14:35:45;11.40;34.90
31837;DHT22;18401;49.344;6.240;2023-02-04T14:38:11;11.10;42.80
31837;DHT22;18401;49.344;6.240;2023-02-04T14:40:40;11.00;48.40
31837;DHT22;18401;49.344;6.240;2023-02-04T14:43:06;11.00;61.20
31837;DHT22;18401;49.344;6.240;2023-02-04T14:45:33;11.00;63.50
31837;DHT22;18401;49.344;6.240;2023-02-04T14:47:58;11.00;74.50
31837;DHT22;18401;49.344;6.240;2023-02-04T14:50:25;11.30;70.80
31837;DHT22;18401;49.344;6.240;2023-02-04T14:52:53;11.40;61.50
31837;DHT22;18401;49.344;6.240;2023-02-04T14:55:19;12.70;57.80
31837;DHT22;18401;49.344;6.240;2023-02-04T14:57:44;14.00;23.90
31837;DHT22;18401;49.344;6.240;2023-02-04T15:00:11;14.80;7.40
31837;DHT22;18401;49.344;6.240;2023-02-04T15:02:36;14.70;1.00
31837;DHT22;18401;49.344;6.240;2023-02-04T15:05:03;14.30;1.00
31837;DHT22;18401;49.344;6.240;2023-02-04T15:07:29;14.00;1.00
31837;DHT22;18401;49.344;6.240;2023-02-04T15:09:54;14.60;1.00
31837;DHT22;18401;49.344;6.240;2023-02-04T15:12:20;14.90;1.00
31837;DHT22;18401;49.344;6.240;2023-02-04T15:14:47;15.30;1.00
31837;DHT22;18401;49.344;6.240;2023-02-04T15:17:12;15.20;1.00
31837;DHT22;18401;49.344;6.240;2023-02-04T15:19:38;14.80;1.00
31837;DHT22;18401;49.344;6.240;2023-02-04T15:22:04;14.70;1.00
31837;DHT22;18401;49.344;6.240;2023-02-04T15:24:29;15.00;1.00
31837;DHT22;18401;49.344;6.240;2023-02-04T15:26:55;15.00;1.00
31837;DHT22;18401;49.344;6.240;2023-02-04T15:29:21;14.70;1.00
31837;DHT22;18401;49.344;6.240;2023-02-04T15:31:46;14.00;1.00
31837;DHT22;18401;49.344;6.240;2023-02-04T15:34:12;13.30;1.00
31837;DHT22;18401;49.344;6.240;2023-02-04T15:36:38;13.00;7.40
31837;DHT22;18401;49.344;6.240;2023-02-04T15:39:03;12.90;14.60
31837;DHT22;18401;49.344;6.240;2023-02-04T15:41:29;13.20;13.10
31837;DHT22;18401;49.344;6.240;2023-02-04T15:43:55;13.50;11.60
31837;DHT22;18401;49.344;6.240;2023-02-04T15:46:20;13.30;3.50
31837;DHT22;18401;49.344;6.240;2023-02-04T15:48:46;13.30;9.40
31837;DHT22;18401;49.344;6.240;2023-02-04T15:51:11;12.70;10.10
31837;DHT22;18401;49.344;6.240;2023-02-04T15:53:37;11.90;21.00
31837;DHT22;18401;49.344;6.240;2023-02-04T15:56:04;11.30;40.80
31837;DHT22;18401;49.344;6.240;2023-02-04T15:58:30;10.80;55.30
31837;DHT22;18401;49.344;6.240;2023-02-04T16:00:55;10.50;70.70
31837;DHT22;18401;49.344;6.240;2023-02-04T16:03:22;10.20;79.70
31837;DHT22;18401;49.344;6.240;2023-02-04T16:05:48;10.00;86.90
31837;DHT22;18401;49.344;6.240;2023-02-04T16:08:13;9.90;91.80
31837;DHT22;18401;49.344;6.240;2023-02-04T16:10:39;9.70;93.70
31837;DHT22;18401;49.344;6.240;2023-02-04T16:13:05;9.60;96.10
31837;DHT22;18401;49.344;6.240;2023-02-04T16:15:31;9.50;98.60
31837;DHT22;18401;49.344;6.240;2023-02-04T16:17:57;9.50;99.90
31837;DHT22;18401;49.344;6.240;2023-02-04T16:20:22;9.40;99.90
31837;DHT22;18401;49.344;6.240;2023-02-04T16:22:48;9.40;99.90
31837;DHT22;18401;49.344;6.240;2023-02-04T16:25:14;9.30;99.90
31837;DHT22;18401;49.344;6.240;2023-02-04T16:27:40;9.30;99.90
31837;DHT22;18401;49.344;6.240;2023-02-04T16:30:06;9.20;99.90
31837;DHT22;18401;49.344;6.240;2023-02-04T16:32:32;9.00;99.90
31837;DHT22;18401;49.344;6.240;2023-02-04T16:34:58;8.90;99.90
31837;DHT22;18401;49.344;6.240;2023-02-04T16:37:25;8.70;99.90
31837;DHT22;18401;49.344;6.240;2023-02-04T16:39:51;8.60;99.90
31837;DHT22;18401;49.344;6.240;2023-02-04T16:42:17;8.60;99.90
31837;DHT22;18401;49.344;6.240;2023-02-04T17:05:26;8.10;99.90
31837;DHT22;18401;49.344;6.240;2023-02-04T17:07:52;8.10;99.90
31837;DHT22;18401;49.344;6.240;2023-02-04T17:10:19;8.00;99.90
31837;DHT22;18401;49.344;6.240;2023-02-04T17:13:05;8.00;99.90
31837;DHT22;18401;49.344;6.240;2023-02-04T17:15:31;8.00;99.90
31837;DHT22;18401;49.344;6.240;2023-02-04T17:17:56;8.10;99.90
31837;DHT22;18401;49.344;6.240;2023-02-04T17:20:22;8.10;99.90
31837;DHT22;18401;49.344;6.240;2023-02-04T17:22:48;8.00;99.90
31837;DHT22;18401;49.344;6.240;2023-02-04T17:25:13;8.00;99.90
31837;DHT22;18401;49.344;6.240;2023-02-04T17:27:39;8.00;99.90
31837;DHT22;18401;49.344;6.240;2023-02-04T17:30:05;7.90;99.90
31837;DHT22;18401;49.344;6.240;2023-02-04T17:32:31;7.90;99.90
31837;DHT22;18401;49.344;6.240;2023-02-04T17:34:56;7.90;99.90
31837;DHT22;18401;49.344;6.240;2023-02-04T17:37:23;7.90;99.90
31837;DHT22;18401;49.344;6.240;2023-02-04T17:39:48;7.90;99.90
31837;DHT22;18401;49.344;6.240;2023-02-04T17:42:14;7.90;99.90
31837;DHT22;18401;49.344;6.240;2023-02-04T17:44:39;8.00;99.90
31837;DHT22;18401;49.344;6.240;2023-02-04T17:47:05;7.90;99.90
31837;DHT22;18401;49.344;6.240;2023-02-04T17:49:31;7.90;99.90
31837;DHT22;18401;49.344;6.240;2023-02-04T17:51:57;7.80;99.90
31837;DHT22;18401;49.344;6.240;2023-02-04T17:54:22;7.80;99.90
31837;DHT22;18401;49.344;6.240;2023-02-04T17:56:49;7.80;99.90
31837;DHT22;18401;49.344;6.240;2023-02-04T17:59:14;7.70;99.90
31837;DHT22;18401;49.344;6.240;2023-02-04T18:01:40;7.70;99.90
31837;DHT22;18401;49.344;6.240;2023-02-04T18:04:13;7.70;99.90
31837;DHT22;18401;49.344;6.240;2023-02-04T18:06:39;7.60;99.90
31837;DHT22;18401;49.344;6.240;2023-02-04T18:09:14;7.60;99.90
31837;DHT22;18401;49.344;6.240;2023-02-04T18:11:40;7.60;99.90
31837;DHT22;18401;49.344;6.240;2023-02-04T18:14:15;7.50;99.90
31837;DHT22;18401;49.344;6.240;2023-02-04T18:16:43;7.50;99.90
31837;DHT22;18401;49.344;6.240;2023-02-04T18:21:44;7.40;99.90
31837;DHT22;18401;49.344;6.240;2023-02-04T18:24:25;7.40;99.90
31837;DHT22;18401;49.344;6.240;2023-02-04T18:26:59;7.30;99.90
31837;DHT22;18401;49.344;6.240;2023-02-04T18:32:00;7.20;99.90
31837;DHT22;18401;49.344;6.240;2023-02-04T18:34:38;7.20;99.90
31837;DHT22;18401;49.344;6.240;2023-02-04T18:37:36;7.30;99.90
31837;DHT22;18401;49.344;6.240;2023-02-04T18:40:17;7.20;99.90
31837;DHT22;18401;49.344;6.240;2023-02-04T18:42:45;7.10;99.90
31837;DHT22;18401;49.344;6.240;2023-02-04T18:45:26;7.00;99.90
31837;DHT22;18401;49.344;6.240;2023-02-04T18:47:58;7.00;99.90
31837;DHT22;18401;49.344;6.240;2023-02-04T18:50:30;7.00;99.90
31837;DHT22;18401;49.344;6.240;2023-02-04T18:55:42;7.00;99.90
31837;DHT22;18401;49.344;6.240;2023-02-04T18:58:39;7.10;99.90
31837;DHT22;18401;49.344;6.240;2023-02-04T19:03:45;7.00;99.90
31837;DHT22;18401;49.344;6.240;2023-02-04T19:06:28;7.00;99.90
31837;DHT22;18401;49.344;6.240;2023-02-04T19:09:23;6.90;99.90
31837;DHT22;18401;49.344;6.240;2023-02-04T19:14:46;6.70;99.90
31837;DHT22;18401;49.344;6.240;2023-02-04T19:22:22;6.60;99.90
31837;DHT22;18401;49.344;6.240;2023-02-04T19:24:54;6.50;99.90
31837;DHT22;18401;49.344;6.240;2023-02-04T19:27:26;6.40;99.90
31837;DHT22;18401;49.344;6.240;2023-02-04T19:29:54;6.30;99.90
31837;DHT22;18401;49.344;6.240;2023-02-04T19:32:24;6.30;99.90
31837;DHT22;18401;49.344;6.240;2023-02-04T19:34:52;6.20;99.90
31837;DHT22;18401;49.344;6.240;2023-02-04T19:37:38;6.20;99.90
31837;DHT22;18401;49.344;6.240;2023-02-04T19:42:51;6.20;99.90
31837;DHT22;18401;49.344;6.240;2023-02-04T19:45:20;6.20;99.90
31837;DHT22;18401;49.344;6.240;2023-02-04T19:47:47;6.30;99.90
31837;DHT22;18401;49.344;6.240;2023-02-04T19:50:27;6.40;99.90
31837;DHT22;18401;49.344;6.240;2023-02-04T19:55:48;6.40;99.90
31837;DHT22;18401;49.344;6.240;2023-02-04T19:58:38;6.50;99.90
31837;DHT22;18401;49.344;6.240;2023-02-04T20:01:10;6.40;99.90
31837;DHT22;18401;49.344;6.240;2023-02-04T20:03:44;6.40;99.90